createdAt,value
2023-04-15T00:04:46.984Z,460.51
2023-04-15T00:10:31.574Z,460.67
2023-04-15T00:16:18.422Z,460.14
2023-04-15T00:22:01.555Z,460.33
2023-04-15T00:27:49.247Z,460.00
2023-04-15T00:33:31.596Z,460.51
2023-04-15T00:38:44.294Z,461.04
2023-04-15T00:44:32.959Z,461.09
2023-04-15T00:50:18.738Z,461.58
2023-04-15T00:56:05.092Z,461.77
2023-04-15T01:01:53.249Z,461.45
2023-04-15T01:07:10.056Z,461.13
2023-04-15T01:13:01.640Z,460.66
2023-04-15T01:18:10.529Z,460.57
2023-04-15T01:23:20.250Z,460.34
2023-04-15T01:28:45.396Z,460.47
2023-04-15T01:34:02.974Z,460.33
2023-04-15T01:39:52.573Z,460.89
2023-04-15T01:45:19.718Z,460.59
2023-04-15T01:50:55.417Z,460.55
2023-04-15T01:56:48.999Z,460.00
2023-04-15T02:01:59.774Z,460.32
2023-04-15T02:07:42.206Z,460.11
2023-04-15T02:13:12.706Z,459.54
2023-04-15T02:18:35.109Z,459.40
2023-04-15T02:24:25.547Z,459.05
2023-04-15T02:29:15.075Z,459.23
2023-04-15T02:34:22.956Z,459.38
2023-04-15T02:39:30.479Z,459.89
2023-04-15T02:44:37.752Z,459.44
2023-04-15T02:49:48.073Z,459.64
2023-04-15T02:54:55.519Z,459.44
2023-04-15T03:00:02.855Z,459.36
2023-04-15T03:05:10.273Z,459.73
2023-04-15T03:10:18.471Z,459.82
2023-04-15T03:15:25.774Z,459.79
2023-04-15T03:20:33.137Z,459.36
2023-04-15T03:25:40.305Z,459.20
2023-04-15T03:30:47.523Z,459.47
2023-04-15T03:35:54.820Z,460.11
2023-04-15T03:41:02.098Z,460.15
2023-04-15T03:46:09.337Z,459.66
2023-04-15T03:51:16.532Z,459.78
2023-04-15T03:56:23.731Z,458.96
2023-04-15T04:01:31.006Z,459.23
2023-04-15T04:06:38.306Z,459.86
2023-04-15T04:11:45.577Z,459.40
2023-04-15T04:16:52.817Z,458.77
2023-04-15T04:21:59.973Z,457.80
2023-04-15T04:27:07.215Z,457.70
2023-04-15T04:32:14.542Z,457.79
2023-04-15T04:37:21.713Z,457.28
2023-04-15T04:42:28.880Z,457.20
2023-04-15T04:47:36.150Z,456.68
2023-04-15T04:52:43.352Z,456.83
2023-04-15T04:57:50.544Z,456.82
2023-04-15T05:02:57.932Z,456.51
2023-04-15T05:08:05.305Z,456.99
2023-04-15T05:13:12.580Z,456.70
2023-04-15T05:18:19.828Z,456.65
2023-04-15T05:23:27.079Z,456.69
2023-04-15T05:28:34.382Z,457.73
2023-04-15T05:33:42.024Z,457.72
2023-04-15T05:38:49.545Z,457.69
2023-04-15T05:44:06.125Z,457.77
2023-04-15T05:49:13.954Z,457.28
2023-04-15T05:54:21.389Z,457.28
2023-04-15T05:59:29.075Z,457.50
2023-04-15T06:04:44.882Z,457.61
2023-04-15T06:09:52.445Z,458.07
2023-04-15T06:15:07.515Z,458.31
2023-04-15T06:20:15.009Z,458.55
2023-04-15T06:25:57.975Z,458.51
2023-04-15T06:31:08.720Z,458.06
2023-04-15T06:36:56.387Z,457.31
2023-04-15T06:42:12.052Z,457.58
2023-04-15T06:47:37.135Z,457.74
2023-04-15T06:52:32.018Z,458.09
2023-04-15T06:57:39.323Z,457.73
2023-04-15T07:02:46.687Z,457.47
2023-04-15T07:07:54.111Z,457.73
2023-04-15T07:13:11.248Z,457.83
2023-04-15T07:18:53.679Z,458.24
2023-04-15T07:24:01.141Z,458.54
2023-04-15T07:29:16.272Z,458.25
2023-04-15T07:35:05.665Z,458.58
2023-04-15T07:40:28.325Z,458.76
2023-04-15T07:45:36.087Z,458.78
2023-04-15T07:51:02.290Z,458.79
2023-04-15T07:56:09.974Z,458.92
2023-04-15T08:01:52.553Z,459.20
2023-04-15T08:07:39.321Z,459.15
2023-04-15T08:12:46.589Z,459.25
2023-04-15T08:17:54.117Z,459.84
2023-04-15T08:23:06.267Z,459.54
2023-04-15T08:28:28.942Z,459.59
2023-04-15T08:33:36.289Z,459.97
2023-04-15T08:38:43.455Z,460.64
2023-04-15T08:43:50.715Z,460.56
2023-04-15T08:48:57.986Z,460.30
2023-04-15T08:54:05.092Z,461.01
2023-04-15T08:59:12.278Z,461.27
2023-04-15T09:04:19.672Z,461.41
2023-04-15T09:09:26.652Z,461.03
2023-04-15T09:14:33.914Z,461.54
2023-04-15T09:19:42.723Z,461.04
2023-04-15T09:24:49.884Z,461.34
2023-04-15T09:29:57.103Z,461.27
2023-04-15T09:35:04.281Z,460.92
2023-04-15T09:40:11.443Z,461.22
2023-04-15T09:45:18.637Z,461.10
2023-04-15T09:50:25.840Z,461.37
2023-04-15T09:55:32.995Z,461.28
2023-04-15T10:00:40.309Z,461.67
2023-04-15T10:05:48.806Z,461.95
2023-04-15T10:10:55.969Z,462.19
2023-04-15T10:16:03.220Z,462.42
2023-04-15T10:21:10.515Z,462.57
2023-04-15T10:26:17.775Z,462.25
2023-04-15T10:31:24.925Z,462.35
2023-04-15T10:36:32.116Z,462.19
2023-04-15T10:41:39.299Z,462.26
2023-04-15T10:46:46.625Z,462.48
2023-04-15T10:51:53.815Z,461.96
2023-04-15T10:57:00.946Z,461.88
2023-04-15T11:02:08.327Z,461.42
2023-04-15T11:07:15.543Z,461.36
2023-04-15T11:12:22.709Z,461.17
2023-04-15T11:17:30.024Z,460.32
2023-04-15T11:22:37.176Z,460.09
2023-04-15T11:27:44.333Z,460.00
2023-04-15T11:32:51.541Z,459.42
2023-04-15T11:37:58.745Z,459.26
2023-04-15T11:43:06.006Z,458.84
2023-04-15T11:48:13.252Z,458.66
2023-04-15T11:53:20.513Z,458.21
2023-04-15T11:58:27.760Z,457.70
2023-04-15T12:03:35.078Z,456.84
2023-04-15T12:08:42.266Z,456.25
2023-04-15T12:13:49.482Z,455.81
2023-04-15T12:18:56.708Z,454.87
2023-04-15T12:24:04.366Z,454.52
2023-04-15T12:29:11.095Z,454.31
2023-04-15T12:34:20.184Z,453.28
2023-04-15T12:39:29.281Z,452.83
2023-04-15T12:44:34.650Z,452.16
2023-04-15T12:49:41.862Z,451.47
2023-04-15T12:54:49.155Z,451.02
2023-04-15T12:59:56.429Z,450.65
2023-04-15T13:05:03.650Z,449.99
2023-04-15T13:10:10.964Z,449.87
2023-04-15T13:15:18.703Z,449.56
2023-04-15T13:20:25.950Z,449.02
2023-04-15T13:25:33.191Z,449.23
2023-04-15T13:30:40.509Z,448.44
2023-04-15T13:35:47.692Z,448.42
2023-04-15T13:40:55.153Z,448.22
2023-04-15T13:46:02.524Z,447.95
2023-04-15T13:51:12.970Z,447.95
2023-04-15T13:56:20.250Z,447.50
2023-04-15T14:01:27.551Z,447.14
2023-04-15T14:06:34.744Z,447.26
2023-04-15T14:11:42.173Z,446.70
2023-04-15T14:16:49.534Z,446.00
2023-04-15T14:21:56.769Z,445.49
2023-04-15T14:27:06.019Z,444.75
2023-04-15T14:32:14.404Z,444.08
2023-04-15T14:37:20.726Z,443.26
2023-04-15T14:42:28.266Z,442.80
2023-04-15T14:47:35.533Z,442.10
2023-04-15T14:52:42.816Z,440.84
2023-04-15T14:57:50.309Z,440.37
2023-04-15T15:02:57.636Z,439.62
2023-04-15T15:08:04.849Z,438.90
2023-04-15T15:13:12.252Z,437.59
2023-04-15T15:18:19.794Z,437.68
2023-04-15T15:23:27.729Z,436.81
2023-04-15T15:28:35.068Z,436.17
2023-04-15T15:33:42.236Z,436.09
2023-04-15T15:38:49.456Z,435.06
2023-04-15T15:43:56.705Z,434.58
2023-04-15T15:49:04.038Z,433.71
2023-04-15T15:54:11.127Z,433.54
2023-04-15T15:59:18.344Z,433.13
2023-04-15T16:04:25.768Z,432.16
2023-04-15T16:09:33.134Z,431.81
2023-04-15T16:14:40.525Z,431.21
2023-04-15T16:19:58.001Z,430.53
2023-04-15T16:24:54.940Z,430.52
2023-04-15T16:30:02.199Z,430.19
2023-04-15T16:35:09.628Z,430.16
2023-04-15T16:40:17.251Z,429.48
2023-04-15T16:45:27.932Z,428.51
2023-04-15T16:50:35.433Z,427.63
2023-04-15T16:55:43.071Z,427.26
2023-04-15T17:00:50.485Z,425.81
2023-04-15T17:05:57.644Z,424.49
2023-04-15T17:11:04.850Z,423.00
2023-04-15T17:16:12.139Z,421.58
2023-04-15T17:21:19.591Z,420.25
2023-04-15T17:26:27.011Z,416.91
2023-04-15T17:31:34.484Z,413.30
2023-04-15T17:36:41.718Z,410.95
2023-04-15T17:41:49.426Z,408.14
2023-04-15T17:46:57.205Z,406.53
2023-04-15T17:52:04.475Z,405.39
2023-04-15T17:57:11.966Z,404.91
2023-04-15T18:02:19.817Z,404.08
2023-04-15T18:07:27.061Z,402.86
2023-04-15T18:12:34.702Z,401.52
2023-04-15T18:17:42.351Z,400.84
2023-04-15T18:22:50.036Z,401.80
2023-04-15T18:27:57.539Z,401.60
2023-04-15T18:33:05.189Z,401.99
2023-04-15T18:38:12.708Z,402.12
2023-04-15T18:43:20.396Z,401.54
2023-04-15T18:48:28.072Z,401.51
2023-04-15T18:53:35.723Z,400.45
2023-04-15T18:59:26.317Z,399.92
2023-04-15T19:03:51.181Z,399.86
2023-04-15T19:08:58.595Z,399.58
2023-04-15T19:14:05.826Z,398.53
2023-04-15T19:19:13.478Z,397.83
2023-04-15T19:24:20.816Z,396.80
2023-04-15T19:29:29.131Z,396.10
2023-04-15T19:34:36.952Z,395.66
2023-04-15T19:39:44.573Z,395.20
2023-04-15T19:44:52.279Z,394.03
2023-04-15T19:50:00.035Z,394.04
2023-04-15T19:55:07.722Z,393.42
2023-04-15T20:00:15.332Z,392.75
2023-04-15T20:05:22.997Z,392.54
2023-04-15T20:10:30.558Z,393.04
2023-04-15T20:15:38.294Z,392.62
2023-04-15T20:20:45.910Z,391.81
2023-04-15T20:25:53.495Z,391.70
2023-04-15T20:31:01.246Z,391.65
2023-04-15T20:36:09.890Z,391.70
2023-04-15T20:41:17.585Z,391.76
2023-04-15T20:46:27.176Z,391.18
2023-04-15T20:51:32.523Z,391.03
2023-04-15T20:56:40.216Z,390.81
2023-04-15T21:01:47.670Z,390.99
2023-04-15T21:06:56.099Z,390.99
2023-04-15T21:12:03.327Z,391.22
2023-04-15T21:17:11.374Z,390.57
2023-04-15T21:22:17.902Z,390.23
2023-04-15T21:27:25.085Z,390.33
2023-04-15T21:32:32.277Z,390.20
2023-04-15T21:37:39.550Z,389.82
2023-04-15T21:42:47.343Z,390.16
2023-04-15T21:48:05.845Z,389.68
2023-04-15T21:53:01.910Z,388.84
2023-04-15T21:58:09.252Z,388.83
2023-04-15T22:03:16.611Z,387.70
2023-04-15T22:08:23.794Z,388.23
2023-04-15T22:13:31.030Z,387.12
2023-04-15T22:18:38.323Z,386.93
2023-04-15T22:23:45.586Z,386.86
2023-04-15T22:28:52.830Z,386.35
2023-04-15T22:34:00.176Z,386.77
2023-04-15T22:39:07.899Z,385.84
2023-04-15T22:44:14.924Z,386.19
2023-04-15T22:49:22.121Z,385.61
2023-04-15T22:54:29.863Z,385.87
2023-04-15T22:59:37.133Z,385.67
2023-04-15T23:04:44.589Z,385.37
2023-04-15T23:09:56.021Z,385.29
2023-04-15T23:15:04.180Z,385.15
2023-04-15T23:20:46.622Z,384.25
2023-04-15T23:26:17.086Z,384.44
2023-04-15T23:31:12.444Z,384.02
2023-04-15T23:36:35.444Z,383.06
2023-04-15T23:42:03.928Z,382.69
2023-04-15T23:46:56.053Z,382.83
2023-04-15T23:52:12.144Z,382.57
2023-04-15T23:57:40.816Z,382.51
